Time;durP1;ratioP1;P1;durP2;ratioP2;P2;SDS_P1;SDS_P2;PMS_P1;PMS_P2;Temp;Humidity;BMP_temperature;BMP_pressure;BME280_temperature;BME280_humidity;BME280_pressure;Samples;Min_cycle;Max_cycle;Signal;HPM_P1;HPM_P2
2022/03/28 00:02:52;;;;;;;19.40;12.63;;;;;;;6.66;100.00;101417.56;4430670;22;10000705;-68
2022/03/28 00:05:17;;;;;;;22.20;12.45;;;;;;;6.49;100.00;101373.59;5031870;28;20065;-68
2022/03/28 00:07:44;;;;;;;19.92;12.82;;;;;;;6.48;100.00;101414.81;5031924;28;20053;-69
2022/03/28 00:10:11;;;;;;;21.05;11.90;;;;;;;6.64;100.00;101424.28;5031734;28;20036;-69
2022/03/28 00:12:38;;;;;;;20.75;12.77;;;;;;;6.27;100.00;101419.63;5031677;28;20553;-68
2022/03/28 00:15:05;;;;;;;21.63;11.43;;;;;;;6.51;100.00;101421.59;5030167;28;20127;-68
2022/03/28 00:17:32;;;;;;;22.55;11.85;;;;;;;6.13;100.00;101374.00;5032079;28;20461;-68
2022/03/28 00:20:01;;;;;;;25.70;13.05;;;;;;;6.18;100.00;101399.28;5031722;28;20053;-68
2022/03/28 00:22:26;;;;;;;21.05;11.70;;;;;;;6.25;100.00;101411.19;5031272;28;20052;-68
2022/03/28 00:24:52;;;;;;;22.40;13.18;;;;;;;6.28;100.00;101411.22;5025608;28;20463;-68
2022/03/28 00:27:19;;;;;;;20.15;12.40;;;;;;;6.00;100.00;101361.22;5011716;28;20029;-68
2022/03/28 00:29:45;;;;;;;22.15;12.63;;;;;;;6.37;100.00;101410.47;5011131;28;20030;-68
2022/03/28 00:32:10;;;;;;;19.65;11.68;;;;;;;6.30;100.00;101396.09;5015702;28;20045;-68
2022/03/28 00:34:36;;;;;;;23.17;12.30;;;;;;;6.57;100.00;101382.13;5051294;28;20116;-68
2022/03/28 00:37:01;;;;;;;20.48;12.50;;;;;;;5.88;100.00;101339.16;5049988;28;20057;-68
2022/03/28 00:39:27;;;;;;;26.52;12.10;;;;;;;5.91;100.00;101336.72;5051270;28;20052;-67
2022/03/28 00:41:53;;;;;;;18.80;12.10;;;;;;;6.12;100.00;101347.06;5051143;28;20086;-68
2022/03/28 00:44:19;;;;;;;17.55;11.88;;;;;;;6.66;100.00;101364.50;5050591;28;20025;-68
2022/03/28 00:46:45;;;;;;;22.75;11.90;;;;;;;6.39;100.00;101378.53;5050933;28;20399;-68
2022/03/28 00:49:11;;;;;;;21.77;11.32;;;;;;;6.63;100.00;101328.25;5051104;28;20451;-68
2022/03/28 00:51:37;;;;;;;19.15;11.88;;;;;;;6.87;100.00;101395.03;5050817;28;20066;-67
2022/03/28 00:54:04;;;;;;;17.83;11.15;;;;;;;6.63;100.00;101363.63;5050880;28;20033;-68
2022/03/28 00:56:29;;;;;;;22.63;11.15;;;;;;;6.86;100.00;101384.91;5049595;28;20129;-68
2022/03/28 00:58:55;;;;;;;20.17;11.65;;;;;;;6.67;100.00;101378.84;5050516;28;20112;-68
2022/03/28 01:01:20;;;;;;;20.73;11.10;;;;;;;6.02;100.00;101340.19;5048215;28;20560;-68
2022/03/28 01:03:46;;;;;;;16.58;10.30;;;;;;;6.41;100.00;101370.13;5032672;28;20050;-68
2022/03/28 01:06:12;;;;;;;18.92;10.20;;;;;;;6.24;100.00;101386.75;5030165;28;20040;-68
2022/03/28 01:08:38;;;;;;;19.48;11.00;;;;;;;6.08;100.00;101352.06;5030641;28;20171;-68
2022/03/28 01:11:06;;;;;;;21.58;10.27;;;;;;;6.26;100.00;101349.75;5030665;28;20128;-68
2022/03/28 01:13:34;;;;;;;19.98;10.27;;;;;;;6.04;100.00;101340.25;5029002;28;20032;-68
2022/03/28 01:16:00;;;;;;;15.77;9.90;;;;;;;5.97;100.00;101339.31;5030845;28;20546;-68
2022/03/28 01:18:27;;;;;;;20.00;9.98;;;;;;;6.01;100.00;101342.72;5030624;28;20476;-68
2022/03/28 01:20:56;;;;;;;22.35;10.05;;;;;;;5.71;100.00;101327.13;5030743;28;20121;-68
2022/03/28 01:23:22;;;;;;;16.13;9.48;;;;;;;6.11;100.00;101392.47;5030497;28;20029;-68
2022/03/28 01:25:52;;;;;;;16.20;9.95;;;;;;;5.33;100.00;101335.84;5029018;28;20032;-68
2022/03/28 01:28:22;;;;;;;19.23;10.27;;;;;;;5.58;100.00;101400.94;5030591;28;20060;-68
2022/03/28 01:30:48;;;;;;;21.30;9.57;;;;;;;6.06;100.00;101394.94;5030133;28;20063;-68
2022/03/28 01:33:14;;;;;;;16.58;9.77;;;;;;;5.58;100.00;101335.38;5030445;28;20503;-68
2022/03/28 01:35:43;;;;;;;19.42;9.80;;;;;;;5.48;100.00;101372.22;5031105;28;20116;-68
2022/03/28 01:38:11;;;;;;;17.90;9.32;;;;;;;5.53;100.00;101301.66;5027704;28;20030;-68
2022/03/28 01:40:46;;;;;;;18.33;9.23;;;;;;;5.71;100.00;101395.25;5029712;28;20022;-68
2022/03/28 01:43:12;;;;;;;17.80;9.38;;;;;;;6.21;100.00;101351.38;5033286;28;20037;-68
2022/03/28 01:45:38;;;;;;;15.40;9.05;;;;;;;5.61;100.00;101335.41;5034355;28;20117;-68
2022/03/28 01:48:05;;;;;;;18.48;9.18;;;;;;;6.21;100.00;101383.34;5034292;28;20116;-68
2022/03/28 01:50:30;;;;;;;17.17;8.77;;;;;;;5.89;100.00;101332.47;5032654;28;20566;-68
2022/03/28 01:52:56;;;;;;;18.70;9.07;;;;;;;5.70;100.00;101380.94;5041797;28;20092;-67
2022/03/28 01:55:23;;;;;;;17.35;8.38;;;;;;;5.96;100.00;101344.34;5053915;28;20037;-68
2022/03/28 01:57:49;;;;;;;20.02;9.00;;;;;;;5.82;100.00;101363.47;5052814;28;20029;-68
2022/03/28 02:00:20;;;;;;;16.08;8.25;;;;;;;6.14;100.00;101378.22;5052423;28;20032;-68
2022/03/28 02:02:47;;;;;;;16.27;8.55;;;;;;;6.28;100.00;101387.66;5053960;28;20103;-68
2022/03/28 02:05:13;;;;;;;14.00;8.38;;;;;;;6.22;100.00;101395.97;5054024;28;20192;-68
2022/03/28 02:07:40;;;;;;;16.42;8.57;;;;;;;6.00;100.00;101402.44;5053584;28;20025;-68
2022/03/28 02:10:10;;;;;;;18.90;8.70;;;;;;;6.06;100.00;101328.50;5052377;28;20086;-68
2022/03/28 02:12:37;;;;;;;14.05;7.45;;;;;;;5.37;100.00;101292.22;5050373;28;20044;-68
2022/03/28 02:15:06;;;;;;;16.45;8.20;;;;;;;5.88;100.00;101387.13;5014375;28;20034;-67
2022/03/28 02:17:32;;;;;;;19.80;8.93;;;;;;;6.07;100.00;101399.19;5014527;28;20172;-68
2022/03/28 02:19:58;;;;;;;14.88;8.23;;;;;;;5.61;100.00;101345.50;5014173;28;20026;-68
2022/03/28 02:22:23;;;;;;;17.92;8.27;;;;;;;5.95;100.00;101338.44;5013842;28;20041;-67
2022/03/28 02:24:49;;;;;;;21.17;9.10;;;;;;;5.84;100.00;101345.00;5014047;28;20026;-68
2022/03/28 02:27:15;;;;;;;16.55;8.43;;;;;;;6.18;100.00;101393.41;5013726;28;20084;-68
2022/03/28 02:29:40;;;;;;;15.27;8.25;;;;;;;6.09;100.00;101391.63;5013899;28;20065;-68
2022/03/28 02:32:06;;;;;;;16.42;8.18;;;;;;;5.92;100.00;101398.94;5012082;28;20041;-68
2022/03/28 02:34:32;;;;;;;18.98;8.77;;;;;;;5.87;100.00;101344.22;5013919;28;20120;-68
2022/03/28 02:36:57;;;;;;;14.77;8.45;;;;;;;6.29;100.00;101392.72;5012323;28;20117;-67
2022/03/28 02:39:23;;;;;;;18.35;8.77;;;;;;;6.06;100.00;101386.53;5013433;28;20026;-68
2022/03/28 02:41:48;;;;;;;17.17;8.73;;;;;;;5.76;100.00;101393.66;5013539;28;20034;-66
2022/03/28 02:44:14;;;;;;;18.10;9.00;;;;;;;5.73;100.00;101396.13;5013530;28;20034;-68
2022/03/28 02:46:40;;;;;;;18.70;9.27;;;;;;;5.73;100.00;101343.13;5013632;28;20025;-67
2022/03/28 02:49:05;;;;;;;18.35;8.73;;;;;;;5.96;100.00;101335.06;5013166;28;20026;-67
2022/03/28 02:51:31;;;;;;;14.57;8.82;;;;;;;5.39;100.00;101339.28;5012635;28;20496;-68
2022/03/28 02:53:56;;;;;;;16.23;8.23;;;;;;;5.97;100.00;101397.34;5011023;28;20125;-68
2022/03/28 02:56:21;;;;;;;14.82;7.93;;;;;;;5.84;100.00;101387.06;5013464;28;20042;-68
2022/03/28 02:58:48;;;;;;;17.48;8.07;;;;;;;5.78;100.00;101395.38;5013167;28;20476;-68
2022/03/28 03:01:14;;;;;;;17.00;8.18;;;;;;;5.81;100.00;101341.56;5011951;28;20084;-68
2022/03/28 03:03:39;;;;;;;12.57;7.68;;;;;;;6.06;100.00;101391.59;5013112;28;20046;-68
2022/03/28 03:06:05;;;;;;;16.55;8.02;;;;;;;5.81;100.00;101405.50;5012921;28;20022;-68
2022/03/28 03:08:30;;;;;;;12.88;7.93;;;;;;;5.98;100.00;101356.13;5013025;28;20469;-66
2022/03/28 03:10:56;;;;;;;16.05;8.15;;;;;;;5.35;100.00;101287.13;5015038;28;20038;-67
2022/03/28 03:13:21;;;;;;;13.50;7.88;;;;;;;6.13;100.00;101375.69;5019580;28;20546;-67
2022/03/28 03:15:47;;;;;;;16.33;7.93;;;;;;;5.61;100.00;101350.53;5030806;28;20029;-69
2022/03/28 03:18:12;;;;;;;17.70;8.55;;;;;;;5.93;100.00;101359.44;5040531;28;20028;-67
2022/03/28 03:20:38;;;;;;;15.25;8.40;;;;;;;5.97;100.00;101341.84;5047341;28;20029;-67
2022/03/28 03:23:03;;;;;;;17.55;8.32;;;;;;;6.13;100.00;101395.88;5019272;28;20507;-65
2022/03/28 03:25:29;;;;;;;17.10;8.98;;;;;;;6.48;100.00;101384.50;5041272;28;20025;-64
2022/03/28 03:27:54;;;;;;;17.52;8.55;;;;;;;5.89;100.00;101381.25;5032173;28;20128;-68
2022/03/28 03:30:20;;;;;;;16.55;8.70;;;;;;;5.49;100.00;101385.66;5027547;28;20022;-66
2022/03/28 03:32:46;;;;;;;16.52;8.40;;;;;;;6.99;100.00;101382.50;5012369;28;20041;-64
2022/03/28 03:35:12;;;;;;;16.48;8.45;;;;;;;5.47;100.00;101289.81;5012258;28;20029;-64
2022/03/28 03:37:38;;;;;;;18.58;8.65;;;;;;;5.69;100.00;101407.00;5012712;28;20026;-63
2022/03/28 03:40:06;;;;;;;16.08;8.38;;;;;;;5.89;100.00;101338.38;5027749;28;20427;-64
2022/03/28 03:42:32;;;;;;;18.13;9.25;;;;;;;7.00;100.00;101360.63;5012948;28;20036;-66
2022/03/28 03:44:58;;;;;;;22.80;13.02;;;;;;;6.67;100.00;101408.31;5012409;28;20037;-65
2022/03/28 03:47:24;;;;;;;23.42;10.13;;;;;;;6.07;100.00;101400.84;5027499;28;20495;-65
2022/03/28 03:49:50;;;;;;;19.63;9.38;;;;;;;5.85;100.00;101366.06;5011747;28;20034;-66
2022/03/28 03:52:15;;;;;;;21.92;9.52;;;;;;;5.85;100.00;101416.50;5012062;28;20128;-64
2022/03/28 03:54:41;;;;;;;15.23;9.65;;;;;;;6.15;100.00;101404.31;5012142;28;20041;-65
2022/03/28 03:57:07;;;;;;;20.42;10.55;;;;;;;5.20;100.00;101372.63;5026495;28;20041;-65
2022/03/28 03:59:33;;;;;;;16.88;10.32;;;;;;;4.59;100.00;101340.50;5012026;28;20115;-64
2022/03/28 04:01:58;;;;;;;20.45;10.30;;;;;;;5.54;100.00;101425.28;5012181;28;20093;-64
2022/03/28 04:04:23;;;;;;;16.75;10.45;;;;;;;5.77;100.00;101413.00;5028693;28;20057;-64
2022/03/28 04:06:49;;;;;;;17.77;9.85;;;;;;;5.12;100.00;101369.13;5049816;28;20029;-64
2022/03/28 04:09:14;;;;;;;21.83;11.10;;;;;;;5.04;100.00;101418.53;5051706;28;20025;-63
2022/03/28 04:11:40;;;;;;;24.70;13.48;;;;;;;5.39;100.00;101382.16;5051635;28;20114;-65
2022/03/28 04:14:05;;;;;;;28.50;14.98;;;;;;;5.50;100.00;101423.53;5050035;28;20056;-63
2022/03/28 04:16:31;;;;;;;25.13;10.77;;;;;;;7.94;100.00;101368.88;5038571;28;20037;-64
2022/03/28 04:18:56;;;;;;;22.45;9.65;;;;;;;9.32;100.00;101403.91;5030184;28;20031;-64
2022/03/28 04:21:22;;;;;;;18.60;9.27;;;;;;;5.73;100.00;101416.31;5029942;28;20091;-63
2022/03/28 04:23:47;;;;;;;19.70;8.85;;;;;;;5.80;100.00;101365.13;5030573;28;20079;-63
2022/03/28 04:26:13;;;;;;;19.40;8.40;;;;;;;5.77;100.00;101383.56;5029891;28;20025;-63
2022/03/28 04:28:38;;;;;;;17.17;9.90;;;;;;;5.75;100.00;101424.75;5029740;28;20484;-65
2022/03/28 04:31:04;;;;;;;21.80;12.60;;;;;;;6.06;100.00;101422.72;5031503;28;20427;-64
2022/03/28 04:33:29;;;;;;;20.58;11.43;;;;;;;4.92;100.00;101381.38;5031331;28;20021;-63
2022/03/28 04:35:55;;;;;;;17.05;9.70;;;;;;;5.18;100.00;101434.75;5030279;28;20153;-64
2022/03/28 04:38:20;;;;;;;25.38;10.98;;;;;;;4.80;100.00;101383.69;5030521;28;20026;-63
2022/03/28 04:40:46;;;;;;;20.17;11.02;;;;;;;5.41;100.00;101427.59;5029316;28;20038;-64
2022/03/28 04:43:12;;;;;;;22.35;11.50;;;;;;;5.62;100.00;101390.09;5030183;28;20037;-64
2022/03/28 04:45:37;;;;;;;25.70;13.10;;;;;;;5.71;100.00;101380.13;5029022;28;20033;-65
2022/03/28 04:48:03;;;;;;;27.15;12.52;;;;;;;5.69;100.00;101444.84;5030583;28;20389;-64
2022/03/28 04:50:29;;;;;;;25.20;13.00;;;;;;;5.43;100.00;101425.94;5029809;28;20491;-64
2022/03/28 04:52:54;;;;;;;30.52;14.75;;;;;;;5.60;100.00;101447.22;5030639;28;20037;-64
2022/03/28 04:55:20;;;;;;;33.25;14.40;;;;;;;5.64;100.00;101401.91;5029090;28;20040;-64
2022/03/28 04:57:45;;;;;;;27.45;13.80;;;;;;;5.66;100.00;101452.38;5030663;28;20017;-64
2022/03/28 05:00:12;;;;;;;34.03;13.05;;;;;;;6.59;100.00;101457.91;5030948;28;20040;-64
2022/03/28 05:02:37;;;;;;;26.60;11.20;;;;;;;6.77;100.00;101463.19;5031015;28;20118;-64
2022/03/28 05:05:04;;;;;;;23.05;10.88;;;;;;;6.58;100.00;101426.72;5030391;28;20531;-64
2022/03/28 05:07:30;;;;;;;24.25;12.30;;;;;;;6.76;100.00;101461.47;5030988;28;20037;-64
2022/03/28 05:09:57;;;;;;;28.42;12.52;;;;;;;6.95;100.00;101451.56;5030741;28;20029;-64
2022/03/28 05:12:26;;;;;;;62.38;38.60;;;;;;;7.39;100.00;101458.75;5030467;28;20068;-64
2022/03/28 05:14:52;;;;;;;51.72;27.17;;;;;;;6.67;100.00;101378.00;5030225;28;20025;-64
2022/03/28 05:17:25;;;;;;;41.28;21.30;;;;;;;6.69;100.00;101356.13;5029025;28;20021;-64
2022/03/28 05:19:52;;;;;;;38.65;20.10;;;;;;;7.43;100.00;101460.44;5030755;28;20022;-64
2022/03/28 05:22:18;;;;;;;29.15;13.88;;;;;;;7.21;100.00;101402.94;5030524;28;20099;-64
2022/03/28 05:24:43;;;;;;;26.65;14.88;;;;;;;7.35;100.00;101454.50;5030604;28;20029;-64
2022/03/28 05:27:09;;;;;;;31.08;15.07;;;;;;;7.73;100.00;101435.41;5030546;28;20537;-64
2022/03/28 05:29:34;;;;;;;30.33;14.95;;;;;;;7.25;100.00;101394.56;5030623;28;20029;-63
2022/03/28 05:32:01;;;;;;;30.13;13.60;;;;;;;8.19;100.00;101470.31;5030187;28;20041;-63
2022/03/28 05:34:28;;;;;;;24.08;11.70;;;;;;;8.50;100.00;101464.59;5030706;28;21835;-64
2022/03/28 05:36:54;;;;;;;25.42;10.75;;;;;;;8.57;98.99;101415.63;5030578;28;20034;-64
2022/03/28 05:39:20;;;;;;;26.40;10.75;;;;;;;8.60;97.00;101427.44;5030307;28;20026;-63
2022/03/28 05:41:45;;;;;;;21.25;9.65;;;;;;;8.92;95.89;101463.91;5030503;28;20037;-63
2022/03/28 05:44:12;;;;;;;22.77;11.10;;;;;;;9.33;92.26;101451.28;5030521;28;20064;-63
2022/03/28 05:46:37;;;;;;;23.15;10.77;;;;;;;9.72;87.61;101458.06;5028787;28;20144;-63
2022/03/28 05:49:02;;;;;;;22.48;13.57;;;;;;;9.63;87.19;101465.69;5030517;28;20531;-63
2022/03/28 05:51:28;;;;;;;30.85;16.50;;;;;;;9.54;86.79;101425.91;5030517;28;20036;-62
2022/03/28 05:53:53;;;;;;;34.50;18.50;;;;;;;9.80;84.76;101408.97;5030238;28;20030;-65
2022/03/28 05:56:18;;;;;;;36.38;18.20;;;;;;;10.27;81.33;101419.00;5030398;28;20037;-62
2022/03/28 05:58:44;;;;;;;25.40;12.18;;;;;;;9.87;83.13;101395.38;5030254;28;20036;-63
2022/03/28 06:01:09;;;;;;;22.27;10.30;;;;;;;10.51;83.65;101451.97;5029926;28;20117;-63
2022/03/28 06:03:37;;;;;;;25.92;9.38;;;;;;;10.71;81.04;101429.84;5030490;28;20438;-63
2022/03/28 06:06:04;;;;;;;25.70;10.85;;;;;;;10.90;82.10;101456.88;5030731;28;20408;-62
2022/03/28 06:08:29;;;;;;;20.08;10.75;;;;;;;10.99;80.69;101466.97;5030197;28;20035;-63
2022/03/28 06:10:55;;;;;;;21.33;10.02;;;;;;;11.32;79.76;101445.56;5030215;28;20033;-65
2022/03/28 06:13:21;;;;;;;18.67;9.52;;;;;;;11.14;80.06;101421.09;5030359;28;20476;-64
2022/03/28 06:15:46;;;;;;;23.85;11.02;;;;;;;11.40;79.89;101450.59;5029819;28;20048;-63
2022/03/28 06:18:11;;;;;;;15.75;7.90;;;;;;;11.95;75.69;101456.94;5029010;28;20032;-63
2022/03/28 06:20:37;;;;;;;21.60;12.32;;;;;;;11.97;73.60;101445.03;5030447;28;20529;-64
2022/03/28 06:23:02;;;;;;;18.17;9.00;;;;;;;12.04;73.89;101456.88;5030015;28;20064;-63
2022/03/28 06:25:28;;;;;;;19.45;9.05;;;;;;;11.77;73.46;101407.00;5030136;28;20491;-63
2022/03/28 06:27:54;;;;;;;20.20;10.30;;;;;;;12.25;71.85;101463.44;5032786;28;20033;-63
2022/03/28 06:30:19;;;;;;;17.00;8.23;;;;;;;12.05;71.49;101461.09;5033283;28;20026;-64
2022/03/28 06:32:45;;;;;;;20.13;8.85;;;;;;;11.56;71.27;101374.06;5033507;28;20501;-63
2022/03/28 06:35:10;;;;;;;20.52;9.32;;;;;;;12.50;70.84;101449.56;5033521;28;20411;-63
2022/03/28 06:37:36;;;;;;;16.85;8.60;;;;;;;12.50;68.83;101458.03;5033520;28;20099;-63
2022/03/28 06:40:03;;;;;;;19.15;9.55;;;;;;;12.12;69.56;101468.66;5033599;28;20053;-63
2022/03/28 06:42:33;;;;;;;17.55;8.98;;;;;;;12.30;69.92;101470.16;5032132;28;20037;-63
2022/03/28 06:45:01;;;;;;;18.67;8.65;;;;;;;12.01;70.60;101419.50;5031617;28;20040;-63
2022/03/28 06:47:27;;;;;;;22.75;12.95;;;;;;;12.64;67.81;101466.38;5033500;28;20048;-63
2022/03/28 06:49:53;;;;;;;15.63;9.10;;;;;;;11.83;69.12;101409.50;5032155;28;20025;-63
2022/03/28 06:52:18;;;;;;;19.92;9.23;;;;;;;12.86;68.63;101409.06;5033161;28;20025;-63
2022/03/28 06:54:44;;;;;;;13.45;8.57;;;;;;;12.82;67.11;101455.06;5033416;28;20044;-63
2022/03/28 06:57:09;;;;;;;19.38;8.68;;;;;;;12.90;65.61;101404.75;5033226;28;20105;-63
2022/03/28 06:59:35;;;;;;;17.33;9.25;;;;;;;12.74;67.39;101469.63;5032820;28;20026;-63
2022/03/28 07:02:00;;;;;;;14.20;8.60;;;;;;;12.95;67.26;101459.97;5033102;28;20111;-63
2022/03/28 07:04:26;;;;;;;13.13;8.32;;;;;;;12.73;67.63;101439.91;5031904;28;20033;-63
2022/03/28 07:06:51;;;;;;;17.55;8.85;;;;;;;12.80;67.11;101462.75;5032822;28;20472;-63
2022/03/28 07:09:17;;;;;;;18.80;8.50;;;;;;;12.59;65.41;101419.66;5032925;28;20041;-63
2022/03/28 07:11:43;;;;;;;14.63;8.70;;;;;;;12.59;65.48;101421.38;5031504;28;20032;-63
2022/03/28 07:14:09;;;;;;;16.70;8.90;;;;;;;13.50;64.50;101460.06;5032533;28;20499;-68
2022/03/28 07:16:34;;;;;;;18.02;8.77;;;;;;;13.36;62.69;101456.03;5033065;28;20060;-64
2022/03/28 07:19:00;;;;;;;18.50;9.13;;;;;;;14.16;61.43;101450.38;5031596;28;20033;-64
2022/03/28 07:21:26;;;;;;;16.48;9.38;;;;;;;13.20;62.80;101411.16;5032594;28;20033;-64
2022/03/28 07:23:53;;;;;;;16.83;9.45;;;;;;;13.96;61.71;101446.50;5032766;28;20495;-64
2022/03/28 07:26:22;;;;;;;17.52;9.30;;;;;;;13.70;61.57;101436.72;5032628;28;20468;-64
2022/03/28 07:28:47;;;;;;;20.95;10.35;;;;;;;13.66;61.93;101400.16;5031003;28;20461;-64
2022/03/28 07:31:13;;;;;;;20.38;10.65;;;;;;;14.27;60.86;101381.91;5032678;28;20033;-65
2022/03/28 07:33:39;;;;;;;16.27;10.48;;;;;;;13.87;60.22;101440.66;5031258;28;20077;-64
2022/03/28 07:36:06;;;;;;;18.83;11.20;;;;;;;13.98;61.02;101429.41;5031424;28;20414;-64
2022/03/28 07:38:32;;;;;;;16.83;10.20;;;;;;;13.78;60.74;101405.06;5031807;28;20029;-64
2022/03/28 07:40:58;;;;;;;22.25;10.88;;;;;;;13.90;61.85;101389.47;5032278;28;20029;-64
2022/03/28 07:43:23;;;;;;;18.92;11.10;;;;;;;14.30;61.65;101437.34;5030764;28;20041;-64
2022/03/28 07:45:50;;;;;;;18.05;11.18;;;;;;;14.59;61.53;101397.47;5032375;28;20033;-64
2022/03/28 07:48:16;;;;;;;23.63;12.25;;;;;;;14.32;62.00;101372.47;5032091;28;20107;-64
2022/03/28 07:50:42;;;;;;;18.40;10.73;;;;;;;14.11;62.81;101418.91;5032346;28;20083;-64
2022/03/28 07:53:08;;;;;;;20.83;11.60;;;;;;;14.45;61.97;101373.91;5032996;28;20544;-64
2022/03/28 07:55:33;;;;;;;20.15;11.27;;;;;;;14.25;61.94;101368.31;5032107;28;20042;-64
2022/03/28 07:58:02;;;;;;;20.98;12.35;;;;;;;14.74;62.23;101421.88;5031906;28;20115;-64
2022/03/28 08:00:29;;;;;;;19.05;11.50;;;;;;;14.84;62.38;101410.56;5032233;28;20103;-64
2022/03/28 08:02:56;;;;;;;22.33;12.20;;;;;;;14.29;63.04;101425.41;5032122;28;20123;-64
2022/03/28 08:05:21;;;;;;;22.17;13.77;;;;;;;15.22;61.09;101412.25;5030883;28;20459;-64
2022/03/28 08:07:50;;;;;;;19.67;12.10;;;;;;;14.97;62.57;101406.88;5031992;28;20095;-64
2022/03/28 08:10:16;;;;;;;20.90;12.18;;;;;;;15.36;59.82;101358.94;5031809;28;20037;-64
2022/03/28 08:12:43;;;;;;;21.63;12.05;;;;;;;14.73;59.94;101338.28;5031550;28;20037;-64
2022/03/28 08:15:11;;;;;;;19.63;11.77;;;;;;;15.44;60.27;101386.09;5031983;28;20105;-64
2022/03/28 08:17:38;;;;;;;18.50;12.93;;;;;;;15.52;60.81;101350.00;5031765;28;20108;-64
2022/03/28 08:20:06;;;;;;;20.63;12.63;;;;;;;14.61;61.36;101400.84;5032335;28;20437;-64
2022/03/28 08:22:33;;;;;;;18.35;12.25;;;;;;;16.18;57.91;101360.16;5031649;28;20037;-64
2022/03/28 08:24:58;;;;;;;25.50;13.30;;;;;;;16.13;57.25;101374.84;5031552;28;20033;-64
2022/03/28 08:27:23;;;;;;;20.70;11.57;;;;;;;15.46;57.55;101342.47;5031626;28;20362;-64
2022/03/28 08:29:49;;;;;;;24.08;12.10;;;;;;;16.40;55.62;101325.28;5030324;28;20120;-64
2022/03/28 08:32:14;;;;;;;18.27;11.20;;;;;;;15.89;57.81;101373.78;5030101;28;20036;-64
2022/03/28 08:34:40;;;;;;;22.60;11.93;;;;;;;16.14;57.23;101320.06;5031397;28;20025;-64
2022/03/28 08:37:05;;;;;;;22.70;11.63;;;;;;;16.24;56.95;101388.22;5031367;28;20029;-64
2022/03/28 08:39:31;;;;;;;17.90;10.70;;;;;;;16.94;55.72;101364.69;5031247;28;20053;-64
2022/03/28 08:41:57;;;;;;;16.50;10.88;;;;;;;16.14;58.82;101340.59;5030059;28;20490;-63
2022/03/28 08:44:23;;;;;;;18.17;11.05;;;;;;;17.42;55.51;101331.38;5031407;28;20075;-64
2022/03/28 08:46:53;;;;;;;20.02;10.52;;;;;;;17.27;55.65;101363.56;5031213;28;20199;-64
2022/03/28 08:49:19;;;;;;;16.63;10.75;;;;;;;17.31;56.05;101372.06;5031170;28;20038;-64
2022/03/28 08:51:44;;;;;;;16.73;11.32;;;;;;;17.09;54.88;101371.88;5030952;28;20116;-64
2022/03/28 08:54:09;;;;;;;17.23;10.40;;;;;;;17.30;55.50;101318.94;5031067;28;20495;-65
2022/03/28 08:56:35;;;;;;;21.55;10.85;;;;;;;17.02;55.73;101301.03;5030078;28;20052;-64
2022/03/28 08:59:00;;;;;;;20.08;10.48;;;;;;;17.49;55.86;101324.34;5030931;28;20021;-64
2022/03/28 09:01:26;;;;;;;18.45;10.63;;;;;;;18.00;55.60;101301.88;5031020;28;20417;-64
2022/03/28 09:03:51;;;;;;;16.00;10.45;;;;;;;17.96;55.45;101332.03;5030992;28;20045;-64
2022/03/28 09:06:30;;;;;;;19.02;10.70;;;;;;;17.44;53.98;101346.75;5031104;28;20116;-64
2022/03/28 09:09:12;;;;;;;24.13;10.93;;;;;;;17.54;55.44;101312.13;5030799;28;20029;-64
2022/03/28 09:11:38;;;;;;;15.95;9.98;;;;;;;18.34;54.70;101340.06;5030999;28;20120;-64
2022/03/28 09:14:03;;;;;;;21.55;10.00;;;;;;;18.50;54.19;101330.91;5031118;28;20415;-64
2022/03/28 09:16:33;;;;;;;17.45;10.85;;;;;;;18.05;56.22;101315.41;5029619;28;20021;-64
2022/03/28 09:18:58;;;;;;;18.92;10.30;;;;;;;17.86;55.85;101270.66;5030750;28;20124;-64
2022/03/28 09:21:25;;;;;;;15.45;10.90;;;;;;;17.53;55.91;101334.44;5030675;28;20619;-64
2022/03/28 09:23:52;;;;;;;23.17;11.10;;;;;;;17.76;55.82;101283.03;5031057;28;20025;-64
2022/03/28 09:26:21;;;;;;;19.70;11.48;;;;;;;18.45;54.84;101325.91;5030574;28;20026;-64
2022/03/28 09:28:56;;;;;;;18.90;10.32;;;;;;;18.19;54.37;101321.72;5030807;28;20435;-64
2022/03/28 09:31:22;;;;;;;15.75;10.60;;;;;;;18.15;54.27;101327.03;5030615;28;20519;-64
2022/03/28 09:33:57;;;;;;;17.40;9.73;;;;;;;18.32;54.60;101310.97;5030530;28;20033;-64
2022/03/28 09:36:36;;;;;;;20.15;10.55;;;;;;;18.65;53.90;101312.25;5030860;28;20063;-64
2022/03/28 09:39:04;;;;;;;22.70;10.80;;;;;;;18.42;53.70;101261.59;5030919;28;20030;-65
2022/03/28 09:41:30;;;;;;;13.93;9.93;;;;;;;18.41;53.99;101292.56;5030531;28;20419;-65
2022/03/28 09:43:56;;;;;;;16.48;10.40;;;;;;;17.89;54.29;101273.09;5030390;28;20047;-65
2022/03/28 09:46:28;;;;;;;16.77;11.15;;;;;;;19.71;52.71;101311.19;5030309;28;20041;-65
2022/03/28 09:48:57;;;;;;;15.27;10.15;;;;;;;18.65;52.99;101302.78;5029155;28;20030;-65
2022/03/28 09:51:29;;;;;;;17.38;10.60;;;;;;;19.88;51.08;101283.75;5030503;28;20033;-64
2022/03/28 09:53:55;;;;;;;15.15;9.63;;;;;;;19.16;51.34;101292.06;5030528;28;20037;-64
2022/03/28 09:56:21;;;;;;;16.65;9.75;;;;;;;19.16;52.63;101271.44;5028968;28;20029;-64
2022/03/28 09:58:49;;;;;;;17.30;9.88;;;;;;;19.40;51.96;101270.41;5030242;28;20053;-64
2022/03/28 10:01:19;;;;;;;19.55;10.35;;;;;;;19.61;51.20;101224.78;5031031;28;20198;-64
2022/03/28 10:03:50;;;;;;;12.95;9.60;;;;;;;19.48;51.25;101246.88;5034301;28;20053;-64
2022/03/28 10:06:17;;;;;;;19.63;9.77;;;;;;;19.72;50.54;101256.09;5034261;28;20034;-64
2022/03/28 10:08:43;;;;;;;16.70;9.77;;;;;;;19.05;50.13;101222.91;5034100;28;20029;-65
2022/03/28 10:11:10;;;;;;;18.95;10.32;;;;;;;19.07;50.72;101252.94;5034209;28;20525;-65
2022/03/28 10:13:38;;;;;;;16.52;9.38;;;;;;;18.92;50.56;101208.88;5034000;28;20407;-64
2022/03/28 10:16:05;;;;;;;14.27;9.32;;;;;;;20.32;50.49;101245.53;5034299;28;20065;-64
2022/03/28 10:18:42;;;;;;;21.10;9.75;;;;;;;20.48;49.53;101230.94;5034061;28;20029;-64
2022/03/28 10:21:17;;;;;;;19.85;9.35;;;;;;;19.98;50.31;101219.59;5032988;28;20183;-64
2022/03/28 10:23:48;;;;;;;18.10;9.48;;;;;;;20.42;49.59;101222.69;5033888;28;20128;-64
2022/03/28 10:26:16;;;;;;;;;;;;;;;21.07;49.40;101222.00;5034089;28;20522;-64
2022/03/28 10:28:41;;;;;;;14.05;9.60;;;;;;;20.45;48.65;101207.88;5034087;28;19913;-65
2022/03/28 10:31:09;;;;;;;17.65;9.25;;;;;;;20.55;49.34;101218.59;5033873;28;20029;-64
2022/03/28 10:33:34;;;;;;;15.48;9.60;;;;;;;19.82;49.35;101170.44;5033898;28;20032;-64
2022/03/28 10:36:24;;;;;;;18.83;9.82;;;;;;;18.69;51.13;101172.94;5032332;28;20415;-65
2022/03/28 10:38:51;;;;;;;17.92;9.10;;;;;;;20.28;49.35;101139.84;5032492;28;20195;-65
2022/03/28 10:41:18;;;;;;;12.25;9.65;;;;;;;20.99;48.68;101198.25;5033804;28;20530;-66
2022/03/28 10:43:45;;;;;;;15.57;9.40;;;;;;;19.46;50.10;101197.06;5033908;28;20026;-65
2022/03/28 10:46:12;;;;;;;17.67;9.82;;;;;;;19.60;50.68;101127.63;5033496;28;20091;-65
2022/03/28 10:48:41;;;;;;;20.95;9.15;;;;;;;20.52;50.08;101146.38;5033608;28;20423;-65
2022/03/28 10:51:19;;;;;;;19.83;9.40;;;;;;;21.40;48.14;101142.59;5033326;28;20029;-65
2022/03/28 10:53:51;;;;;;;16.92;9.27;;;;;;;21.91;47.09;101165.66;5033585;28;20083;-65
2022/03/28 10:56:20;;;;;;;14.07;9.15;;;;;;;21.90;47.45;101158.00;5033404;28;20076;-65
2022/03/28 10:58:57;;;;;;;19.13;9.15;;;;;;;20.92;48.52;101150.38;5033139;28;20041;-65
2022/03/28 11:01:29;;;;;;;20.58;9.65;;;;;;;20.93;49.31;101146.84;5033226;28;20036;-64
2022/03/28 11:03:55;;;;;;;18.48;9.75;;;;;;;20.65;50.08;101147.41;5031861;28;20049;-64
2022/03/28 11:07:06;;;;;;;17.85;9.80;;;;;;;22.24;48.63;101131.84;5033297;28;20052;-65
2022/03/28 11:09:32;;;;;;;16.33;9.65;;;;;;;22.04;48.28;101119.19;5033241;28;20029;-64
2022/03/28 11:12:09;;;;;;;16.98;9.10;;;;;;;22.18;46.58;101106.28;5032888;28;20036;-64
2022/03/28 11:14:59;;;;;;;17.98;9.70;;;;;;;21.77;47.89;101118.16;5032152;28;20472;-64